Meadville, PA (16335)

12:43 PM EDT on August 18, 2017 (GMT -0400)
Gilmore St | | Change Station

Elev 1365 ft 41.65 °N, 80.14 °W | Updated 1 minute ago

Partly Cloudy
Partly Cloudy
81.5 °F
Feels Like 83 °F
N
4.5
Wind Variable Wind from South
Gusts 8.1 mph

Today
High -- | Low -- °F
--% Chance of Precip.
Yesterday
High -- | Low -- °F
Precip. -- in
Pressure 29.80 in
Visibility 10.0 miles
Clouds Few 2900 ft
Scattered Clouds 4200 ft
Scattered Clouds 5000 ft
Heat Index 83 °F
Dew Point 63 °F
Humidity 54%
Rainfall 0.00 in
Snow Depth Not available.
6:32 AM 8:15 PM
Waning Crescent, 12% visible
METAR KGKJ 181553Z AUTO 23010KT 10SM FEW029 SCT042 SCT050 25/19 A2983 RMK AO2 SLP091 T02500189
Pressure 29.80 in
Visibility 10.0 miles
Clouds Few 2900 ft
Scattered Clouds 4200 ft
Scattered Clouds 5000 ft
Heat Index 83 °F
Dew Point 63 °F
Humidity 54%
Rainfall 0.00 in
Snow Depth Not available.
6:32 AM 8:15 PM
Waning Crescent, 12% visible
METAR KGKJ 181553Z AUTO 23010KT 10SM FEW029 SCT042 SCT050 25/19 A2983 RMK AO2 SLP091 T02500189

Get Severe Weather Alerts

Thanks for signing up!

Be on the lookout for a verification email in your inbox.

You'll start receiving the daily forecast at 6 AM.

×

10-Day Weather Forecast

Almanac

Astronomy

Aug. 18, 2017 Rise Set
Actual Time
Civil Twilight
Nautical Twilight
Astronomical Twilight
Moon
Length of Visible Light
Length of Day
Tomorrow will be .
, % of the Moon is Illuminated

Today's Extremes

State Highs State Lows

Community

WunderPhotos

Category 6

Welcome to Category 6. This is the collective home for Weather Underground's featured writeups by Dr. Jeff Masters (right), Bob Henson (left), Chris Burt, and other regular contributors.

Nearby

Air Quality

  Air Quality AQ Index Pollutant
Not available.

Snow Depth

Station Depth Elevation

Earthquake Activity

City Distance Mag. Time & Date
Minimum magnitude displayed is 2.5.

Coastal Water Temperatures

Place Temperature

Stations

Nearby Weather Stations

Station Location Temp. Windchill Dew Point Humidity Wind Precip. Elev Updated Type
                   

Watches & Warnings

There are currently no watches in effect.